Time;durP1;ratioP1;P1;durP2;ratioP2;P2;SDS_P1;SDS_P2;PMS_P1;PMS_P2;Temp;Humidity;BMP_temperature;BMP_pressure;BME280_temperature;BME280_humidity;BME280_pressure;Samples;Min_cycle;Max_cycle;Signal;HPM_P1;HPM_P2
2023/05/29 00:00:47;;;;;;;69.38;49.83;;;;;;;;;;5026479;28;20029;-70
2023/05/29 00:03:14;;;;;;;83.32;53.20;;;;;;;;;;5025220;28;20017;-70
2023/05/29 00:05:41;;;;;;;82.70;60.15;;;;;;;;;;5028085;28;20025;-68
2023/05/29 00:08:07;;;;;;;109.90;74.03;;;;;;;;;;5024445;28;20438;-71
2023/05/29 00:10:35;;;;;;;139.00;95.07;;;;;;;;;;5023038;28;20029;-69
2023/05/29 00:13:02;;;;;;;148.18;105.05;;;;;;;;;;5023587;28;20030;-70
2023/05/29 00:15:30;;;;;;;149.52;82.43;;;;;;;;;;5023727;28;20395;-71
2023/05/29 00:17:57;;;;;;;134.05;85.40;;;;;;;;;;5023026;28;20026;-70
2023/05/29 00:20:23;;;;;;;104.10;68.18;;;;;;;;;;5024100;28;20520;-69
2023/05/29 00:22:50;;;;;;;127.75;82.55;;;;;;;;;;5025690;28;20033;-70
2023/05/29 00:25:17;;;;;;;103.68;75.05;;;;;;;;;;5024879;28;20018;-70
2023/05/29 00:27:44;;;;;;;432.77;345.85;;;;;;;;;;5023841;28;20041;-70
2023/05/29 00:30:10;;;;;;;135.75;100.28;;;;;;;;;;5025501;28;20029;-69
2023/05/29 00:32:37;;;;;;;113.85;82.20;;;;;;;;;;5024632;28;20045;-69
2023/05/29 00:35:04;;;;;;;102.50;68.70;;;;;;;;;;5023562;28;20032;-69
2023/05/29 00:37:31;;;;;;;94.88;66.22;;;;;;;;;;5025410;28;20048;-68
2023/05/29 00:39:58;;;;;;;92.40;66.20;;;;;;;;;;5024636;28;20049;-71
2023/05/29 00:42:24;;;;;;;90.13;64.32;;;;;;;;;;5023569;28;20041;-70
2023/05/29 00:44:51;;;;;;;86.88;62.90;;;;;;;;;;5025012;28;20104;-69
2023/05/29 00:47:18;;;;;;;105.53;70.75;;;;;;;;;;5024609;28;20041;-70
2023/05/29 00:49:45;;;;;;;113.45;78.53;;;;;;;;;;5023466;28;20010;-70
2023/05/29 00:52:12;;;;;;;120.00;84.65;;;;;;;;;;5024808;28;20102;-69
2023/05/29 00:54:39;;;;;;;149.85;98.55;;;;;;;;;;5024625;28;20032;-69
2023/05/29 00:57:06;;;;;;;137.07;96.35;;;;;;;;;;5023121;28;20033;-68
2023/05/29 00:59:34;;;;;;;133.57;90.93;;;;;;;;;;5024856;28;20501;-70
2023/05/29 01:02:02;;;;;;;109.50;78.47;;;;;;;;;;5024893;28;20072;-69
2023/05/29 01:04:28;;;;;;;115.03;82.05;;;;;;;;;;5010826;28;20077;-70
2023/05/29 01:06:56;;;;;;;116.85;81.10;;;;;;;;;;5024028;28;20135;-70
2023/05/29 01:09:23;;;;;;;117.70;80.43;;;;;;;;;;5022850;28;20026;-69
2023/05/29 01:12:10;;;;;;;121.55;82.50;;;;;;;;;;5023316;28;20030;-69
2023/05/29 01:14:38;;;;;;;100.90;67.65;;;;;;;;;;5025673;28;20029;-69
2023/05/29 01:17:06;;;;;;;95.57;65.53;;;;;;;;;;5028252;28;20421;-66
2023/05/29 01:19:35;;;;;;;111.82;80.45;;;;;;;;;;5030735;28;20026;-67
2023/05/29 01:22:14;;;;;;;110.93;79.93;;;;;;;;;;5016625;28;20029;-68
2023/05/29 01:24:51;;;;;;;106.13;75.57;;;;;;;;;;5020627;28;20511;-68
2023/05/29 01:27:22;;;;;;;101.68;71.18;;;;;;;;;;5013303;28;20517;-67
2023/05/29 01:29:50;;;;;;;96.13;68.30;;;;;;;;;;5006132;28;20068;-66
2023/05/29 01:32:17;;;;;;;99.35;73.65;;;;;;;;;;5017253;28;20014;-67
2023/05/29 01:34:43;;;;;;;105.50;77.60;;;;;;;;;;5020408;28;20108;-67
2023/05/29 01:37:10;;;;;;;107.60;80.97;;;;;;;;;;5014226;28;20041;-68
2023/05/29 01:39:37;;;;;;;113.40;77.03;;;;;;;;;;5020237;28;20048;-66
2023/05/29 01:42:04;;;;;;;122.00;77.75;;;;;;;;;;5021705;28;20028;-67
2023/05/29 01:44:31;;;;;;;115.38;80.03;;;;;;;;;;5021284;28;20033;-68
2023/05/29 01:46:58;;;;;;;102.32;73.13;;;;;;;;;;5022800;28;20029;-68
2023/05/29 01:49:26;;;;;;;96.38;70.50;;;;;;;;;;5022072;28;20025;-69
2023/05/29 01:51:53;;;;;;;209.68;150.10;;;;;;;;;;5022515;28;20017;-67
2023/05/29 01:54:20;;;;;;;120.90;90.07;;;;;;;;;;5022771;28;20017;-67
2023/05/29 01:56:47;;;;;;;113.88;83.72;;;;;;;;;;5020834;28;20438;-66
2023/05/29 01:59:14;;;;;;;114.97;81.38;;;;;;;;;;5021695;28;20040;-67
2023/05/29 02:01:40;;;;;;;115.03;82.95;;;;;;;;;;5021199;28;20022;-65
2023/05/29 02:04:07;;;;;;;109.35;78.20;;;;;;;;;;5018104;28;20153;-66
2023/05/29 02:06:34;;;;;;;133.40;89.60;;;;;;;;;;5020122;28;20505;-66
2023/05/29 02:09:01;;;;;;;161.63;109.70;;;;;;;;;;5020620;28;20041;-66
2023/05/29 02:11:28;;;;;;;267.45;174.77;;;;;;;;;;5016447;28;20030;-66
2023/05/29 02:13:54;;;;;;;159.57;109.68;;;;;;;;;;5019777;28;20028;-67
2023/05/29 02:16:21;;;;;;;99.68;71.53;;;;;;;;;;5020511;28;20033;-66
2023/05/29 02:18:48;;;;;;;92.25;64.22;;;;;;;;;;5019618;28;20614;-68
2023/05/29 02:21:15;;;;;;;84.32;61.15;;;;;;;;;;5019879;28;20109;-66
2023/05/29 02:23:41;;;;;;;87.28;59.03;;;;;;;;;;5020135;28;20029;-66
2023/05/29 02:26:08;;;;;;;82.35;58.50;;;;;;;;;;5019616;28;20476;-68
2023/05/29 02:28:35;;;;;;;67.95;50.10;;;;;;;;;;5019737;28;20025;-68
2023/05/29 02:31:03;;;;;;;67.47;49.60;;;;;;;;;;5020731;28;20501;-67
2023/05/29 02:33:29;;;;;;;93.00;75.25;;;;;;;;;;5023294;28;20088;-67
2023/05/29 02:35:56;;;;;;;67.35;50.03;;;;;;;;;;5021727;28;20152;-66
2023/05/29 02:38:23;;;;;;;64.78;46.80;;;;;;;;;;5021210;28;20083;-66
2023/05/29 02:40:50;;;;;;;69.80;47.72;;;;;;;;;;5008132;28;20101;-67
2023/05/29 02:43:17;;;;;;;74.53;49.03;;;;;;;;;;5015999;28;20076;-66
2023/05/29 02:45:44;;;;;;;66.60;44.00;;;;;;;;;;5021941;28;20071;-66
2023/05/29 02:48:11;;;;;;;65.90;44.97;;;;;;;;;;5025577;28;20029;-66
2023/05/29 02:50:37;;;;;;;74.75;49.38;;;;;;;;;;5021107;28;20037;-66
2023/05/29 02:53:04;;;;;;;65.30;43.92;;;;;;;;;;5022494;28;20032;-66
2023/05/29 02:55:32;;;;;;;60.35;42.53;;;;;;;;;;5023916;28;20060;-67
2023/05/29 02:57:59;;;;;;;60.03;43.17;;;;;;;;;;5022697;28;20522;-66
2023/05/29 03:00:28;;;;;;;54.28;39.22;;;;;;;;;;5026396;28;20032;-66
2023/05/29 03:02:55;;;;;;;51.28;39.25;;;;;;;;;;5027379;28;20029;-66
2023/05/29 03:05:21;;;;;;;57.38;39.47;;;;;;;;;;5025215;28;20049;-66
2023/05/29 03:07:48;;;;;;;54.78;37.92;;;;;;;;;;5026066;28;20021;-66
2023/05/29 03:10:17;;;;;;;49.25;36.47;;;;;;;;;;5027362;28;20025;-66
2023/05/29 03:12:44;;;;;;;52.10;37.63;;;;;;;;;;5022931;28;20080;-65
2023/05/29 03:15:11;;;;;;;52.50;40.03;;;;;;;;;;5025201;28;20032;-65
2023/05/29 03:17:38;;;;;;;53.88;38.85;;;;;;;;;;5026928;28;20497;-67
2023/05/29 03:20:06;;;;;;;63.95;47.17;;;;;;;;;;5007981;28;20430;-67
2023/05/29 03:22:33;;;;;;;63.17;44.63;;;;;;;;;;5025097;28;20113;-66
2023/05/29 03:24:59;;;;;;;54.05;41.20;;;;;;;;;;5026881;28;20108;-66
2023/05/29 03:27:27;;;;;;;51.95;37.30;;;;;;;;;;5025534;28;20525;-66
2023/05/29 03:29:54;;;;;;;51.42;40.67;;;;;;;;;;5024763;28;20017;-66
2023/05/29 03:32:21;;;;;;;60.92;45.85;;;;;;;;;;5026534;28;20071;-66
2023/05/29 03:34:48;;;;;;;59.45;46.20;;;;;;;;;;5025448;28;20018;-67
2023/05/29 03:37:15;;;;;;;56.25;41.40;;;;;;;;;;5024726;28;20390;-67
2023/05/29 03:39:41;;;;;;;54.60;39.08;;;;;;;;;;5021910;28;20022;-67
2023/05/29 03:42:08;;;;;;;49.28;39.58;;;;;;;;;;5026189;28;20022;-67
2023/05/29 03:44:35;;;;;;;46.75;37.20;;;;;;;;;;5024435;28;20022;-66
2023/05/29 03:47:02;;;;;;;47.58;38.13;;;;;;;;;;5026050;28;20058;-67
2023/05/29 03:49:28;;;;;;;55.08;37.92;;;;;;;;;;5025909;28;20022;-66
2023/05/29 03:51:55;;;;;;;62.30;45.08;;;;;;;;;;5026348;28;20019;-66
2023/05/29 03:54:22;;;;;;;54.67;42.90;;;;;;;;;;5021592;28;20080;-66
2023/05/29 03:56:48;;;;;;;60.38;41.42;;;;;;;;;;5025804;28;20021;-66
2023/05/29 03:59:15;;;;;;;49.88;38.83;;;;;;;;;;5008858;28;20434;-66
2023/05/29 04:01:42;;;;;;;50.20;38.97;;;;;;;;;;5024529;28;20022;-65
2023/05/29 04:04:08;;;;;;;48.72;37.28;;;;;;;;;;5025802;28;20037;-66
2023/05/29 04:06:38;;;;;;;53.05;38.75;;;;;;;;;;5025844;28;20025;-66
2023/05/29 04:09:06;;;;;;;56.05;42.90;;;;;;;;;;5021104;28;20081;-67
2023/05/29 04:11:34;;;;;;;50.45;35.92;;;;;;;;;;5017901;28;20550;-65
2023/05/29 04:14:03;;;;;;;46.95;36.63;;;;;;;;;;5023286;28;20467;-66
2023/05/29 04:16:30;;;;;;;36.35;32.33;;;;;;;;;;5020910;28;20068;-66
2023/05/29 04:18:57;;;;;;;38.83;32.47;;;;;;;;;;5021835;28;20021;-69
2023/05/29 04:21:24;;;;;;;42.13;33.25;;;;;;;;;;5020748;28;20044;-65
2023/05/29 04:23:50;;;;;;;43.42;34.08;;;;;;;;;;5024346;28;20029;-70
2023/05/29 04:26:17;;;;;;;44.63;32.95;;;;;;;;;;5025455;28;20022;-65
2023/05/29 04:28:44;;;;;;;38.08;32.08;;;;;;;;;;5018083;28;20489;-64
2023/05/29 04:31:14;;;;;;;41.95;32.10;;;;;;;;;;5018312;28;20034;-65
2023/05/29 04:33:41;;;;;;;36.42;28.90;;;;;;;;;;5017691;28;20021;-65
2023/05/29 04:36:08;;;;;;;38.33;31.55;;;;;;;;;;5018353;28;20048;-64
2023/05/29 04:38:36;;;;;;;48.13;31.63;;;;;;;;;;5019438;28;20028;-66
2023/05/29 04:41:03;;;;;;;38.03;31.02;;;;;;;;;;5020883;28;20026;-66
2023/05/29 04:43:30;;;;;;;42.08;30.98;;;;;;;;;;5017661;28;20603;-66
2023/05/29 04:45:58;;;;;;;46.45;35.00;;;;;;;;;;5025340;28;20482;-65
2023/05/29 04:48:25;;;;;;;46.30;36.28;;;;;;;;;;5026655;28;20036;-65
2023/05/29 04:50:51;;;;;;;43.13;33.50;;;;;;;;;;5018534;28;20383;-66
2023/05/29 04:53:18;;;;;;;38.33;31.23;;;;;;;;;;5022797;28;20029;-65
2023/05/29 04:55:45;;;;;;;41.42;31.58;;;;;;;;;;5024910;28;20044;-70
2023/05/29 04:58:12;;;;;;;69.90;46.95;;;;;;;;;;5023738;28;20379;-71
2023/05/29 05:00:38;;;;;;;42.90;33.03;;;;;;;;;;5024361;28;20036;-66
2023/05/29 05:03:05;;;;;;;37.13;30.02;;;;;;;;;;5022781;28;20368;-66
2023/05/29 05:05:33;;;;;;;34.72;28.50;;;;;;;;;;5025651;28;20033;-69
2023/05/29 05:07:59;;;;;;;36.90;29.30;;;;;;;;;;5026601;28;20018;-66
2023/05/29 05:10:26;;;;;;;48.42;34.17;;;;;;;;;;5023870;28;20466;-68
2023/05/29 05:12:53;;;;;;;43.97;32.50;;;;;;;;;;5019265;28;20021;-63
2023/05/29 05:15:20;;;;;;;38.72;30.70;;;;;;;;;;5023636;28;20024;-64
2023/05/29 05:17:46;;;;;;;43.05;34.10;;;;;;;;;;5023197;28;20025;-65
2023/05/29 05:20:13;;;;;;;38.78;30.17;;;;;;;;;;5023726;28;20496;-64
2023/05/29 05:22:40;;;;;;;36.35;31.02;;;;;;;;;;5023429;28;20018;-65
2023/05/29 05:25:07;;;;;;;38.30;29.92;;;;;;;;;;5023671;28;20029;-64
2023/05/29 05:27:34;;;;;;;38.38;30.05;;;;;;;;;;5023302;28;20022;-64
2023/05/29 05:30:01;;;;;;;39.17;26.98;;;;;;;;;;5023246;28;20052;-64
2023/05/29 05:32:28;;;;;;;36.25;28.10;;;;;;;;;;5023368;28;20454;-65
2023/05/29 05:34:55;;;;;;;43.95;34.05;;;;;;;;;;5023376;28;20029;-66
2023/05/29 05:37:23;;;;;;;75.93;59.38;;;;;;;;;;5026175;28;20076;-65
2023/05/29 05:39:53;;;;;;;34.97;28.75;;;;;;;;;;5024303;28;20026;-65
2023/05/29 05:42:20;;;;;;;35.80;27.58;;;;;;;;;;5022123;28;20075;-65
2023/05/29 05:44:47;;;;;;;38.17;31.48;;;;;;;;;;5024458;28;20055;-65
2023/05/29 05:47:14;;;;;;;34.60;28.20;;;;;;;;;;5018056;28;20398;-64
2023/05/29 05:49:41;;;;;;;33.20;28.23;;;;;;;;;;5030667;28;20013;-66
2023/05/29 05:52:07;;;;;;;35.20;29.65;;;;;;;;;;5031366;28;20387;-65
2023/05/29 05:54:34;;;;;;;33.20;27.20;;;;;;;;;;5031123;28;20559;-64
2023/05/29 05:57:02;;;;;;;32.83;25.88;;;;;;;;;;5029045;28;20034;-66
2023/05/29 05:59:29;;;;;;;31.30;25.92;;;;;;;;;;5029046;28;20013;-66
2023/05/29 06:01:56;;;;;;;33.45;27.48;;;;;;;;;;5025108;28;20076;-66
2023/05/29 06:04:23;;;;;;;31.60;26.65;;;;;;;;;;5026445;28;20054;-66
2023/05/29 06:06:49;;;;;;;32.95;26.73;;;;;;;;;;5019805;28;20024;-66
2023/05/29 06:09:16;;;;;;;32.95;25.33;;;;;;;;;;5024529;28;20223;-66
2023/05/29 06:11:43;;;;;;;33.53;26.05;;;;;;;;;;5021909;28;20037;-66
2023/05/29 06:14:10;;;;;;;32.90;25.95;;;;;;;;;;5023153;28;20444;-65
2023/05/29 06:16:37;;;;;;;33.90;27.25;;;;;;;;;;5017457;28;20084;-66
2023/05/29 06:19:04;;;;;;;31.45;25.65;;;;;;;;;;5022889;28;20084;-66
2023/05/29 06:21:31;;;;;;;30.83;26.00;;;;;;;;;;5023556;28;20033;-66
2023/05/29 06:23:58;;;;;;;32.67;25.90;;;;;;;;;;5020439;28;20033;-65
2023/05/29 06:26:25;;;;;;;37.10;28.35;;;;;;;;;;5021254;28;20104;-66
2023/05/29 06:28:52;;;;;;;35.28;30.33;;;;;;;;;;5023255;28;20021;-66
2023/05/29 06:31:18;;;;;;;31.50;26.13;;;;;;;;;;5021397;28;20116;-66
2023/05/29 06:33:45;;;;;;;30.95;27.55;;;;;;;;;;5022083;28;20096;-66
2023/05/29 06:36:13;;;;;;;31.55;27.23;;;;;;;;;;5026590;28;20028;-68
2023/05/29 06:38:40;;;;;;;51.38;41.10;;;;;;;;;;5033108;28;20044;-66
2023/05/29 06:41:06;;;;;;;35.50;29.35;;;;;;;;;;5014202;28;20057;-66
2023/05/29 06:43:33;;;;;;;37.28;28.77;;;;;;;;;;5013267;28;20030;-73
2023/05/29 06:46:00;;;;;;;29.13;24.70;;;;;;;;;;5029255;28;20463;-72
2023/05/29 06:48:27;;;;;;;30.65;25.13;;;;;;;;;;5012185;28;20029;-68
2023/05/29 06:50:53;;;;;;;34.38;26.25;;;;;;;;;;5021889;28;20514;-69
2023/05/29 06:53:20;;;;;;;35.10;26.33;;;;;;;;;;5021892;28;20022;-69
2023/05/29 06:55:47;;;;;;;34.72;29.20;;;;;;;;;;5023109;28;20091;-69
2023/05/29 06:58:13;;;;;;;32.38;24.40;;;;;;;;;;5021866;28;20052;-70
2023/05/29 07:00:40;;;;;;;28.25;24.17;;;;;;;;;;5023687;28;20017;-69
2023/05/29 07:03:07;;;;;;;31.63;22.83;;;;;;;;;;5021946;28;20052;-69
2023/05/29 07:05:34;;;;;;;26.90;22.33;;;;;;;;;;5013100;28;20033;-73
2023/05/29 07:08:01;;;;;;;27.67;24.38;;;;;;;;;;5013348;28;20463;-70
2023/05/29 07:10:28;;;;;;;32.70;25.30;;;;;;;;;;5012936;28;20022;-70
2023/05/29 07:12:54;;;;;;;30.10;25.02;;;;;;;;;;5013185;28;20029;-69
2023/05/29 07:15:21;;;;;;;30.98;25.25;;;;;;;;;;5013259;28;20018;-68
2023/05/29 07:17:48;;;;;;;28.77;23.08;;;;;;;;;;5012964;28;20072;-68
2023/05/29 07:20:15;;;;;;;28.13;23.55;;;;;;;;;;5013087;28;20027;-70
2023/05/29 07:22:42;;;;;;;32.53;26.70;;;;;;;;;;5013214;28;20022;-71
2023/05/29 07:25:09;;;;;;;33.40;27.40;;;;;;;;;;5012911;28;20105;-71
2023/05/29 07:27:35;;;;;;;34.15;27.17;;;;;;;;;;5013094;28;20033;-70
2023/05/29 07:30:02;;;;;;;38.30;27.10;;;;;;;;;;5013121;28;20408;-71
2023/05/29 07:32:30;;;;;;;29.35;24.98;;;;;;;;;;5012928;28;20026;-75
2023/05/29 07:34:57;;;;;;;35.05;27.40;;;;;;;;;;5013051;28;20022;-70
2023/05/29 07:37:23;;;;;;;48.88;35.58;;;;;;;;;;5013008;28;20021;-72
2023/05/29 07:39:50;;;;;;;46.22;35.83;;;;;;;;;;5012784;28;20022;-71
2023/05/29 07:42:17;;;;;;;40.85;29.42;;;;;;;;;;5013188;28;20471;-69
2023/05/29 07:44:44;;;;;;;40.03;28.88;;;;;;;;;;5016510;28;20025;-69
2023/05/29 07:47:10;;;;;;;41.25;29.48;;;;;;;;;;5016221;28;20030;-68
2023/05/29 07:49:37;;;;;;;69.00;50.58;;;;;;;;;;5016446;28;20042;-68
2023/05/29 07:52:04;;;;;;;133.48;91.93;;;;;;;;;;5016474;28;20459;-69
2023/05/29 07:54:32;;;;;;;74.00;52.17;;;;;;;;;;5016213;28;20113;-70
2023/05/29 07:56:59;;;;;;;58.28;43.17;;;;;;;;;;5016191;28;20049;-70
2023/05/29 07:59:26;;;;;;;52.20;37.10;;;;;;;;;;5016331;28;20391;-69
2023/05/29 08:01:53;;;;;;;53.78;37.97;;;;;;;;;;5016140;28;20533;-70
2023/05/29 08:04:21;;;;;;;62.22;44.05;;;;;;;;;;5015906;28;20096;-70
2023/05/29 08:06:48;;;;;;;60.00;40.20;;;;;;;;;;5016183;28;20033;-70
2023/05/29 08:09:15;;;;;;;51.17;35.40;;;;;;;;;;5016035;28;20149;-70
2023/05/29 08:11:41;;;;;;;51.40;39.05;;;;;;;;;;5016011;28;20502;-73
2023/05/29 08:14:08;;;;;;;39.35;30.23;;;;;;;;;;5016018;28;20034;-72
2023/05/29 08:16:35;;;;;;;42.22;36.05;;;;;;;;;;5015949;28;20033;-73
2023/05/29 08:19:02;;;;;;;59.03;42.15;;;;;;;;;;5015781;28;20034;-73
2023/05/29 08:21:28;;;;;;;35.90;27.63;;;;;;;;;;5015961;28;20119;-73
2023/05/29 08:23:55;;;;;;;39.42;28.05;;;;;;;;;;5015787;28;20033;-70
2023/05/29 08:26:22;;;;;;;103.65;85.18;;;;;;;;;;5015614;28;20034;-69
2023/05/29 08:28:48;;;;;;;38.58;30.08;;;;;;;;;;5015785;28;20065;-70
2023/05/29 08:31:15;;;;;;;36.78;27.63;;;;;;;;;;5015540;28;20026;-70
2023/05/29 08:33:42;;;;;;;46.50;30.85;;;;;;;;;;5015475;28;20080;-69
2023/05/29 08:36:10;;;;;;;39.80;25.25;;;;;;;;;;5015485;28;20076;-70
2023/05/29 08:38:37;;;;;;;36.45;25.35;;;;;;;;;;5015376;28;20480;-70
2023/05/29 08:41:05;;;;;;;33.60;26.60;;;;;;;;;;5017910;28;20021;-71
2023/05/29 08:43:32;;;;;;;49.42;35.90;;;;;;;;;;5019745;28;20068;-71
2023/05/29 08:46:01;;;;;;;40.83;29.05;;;;;;;;;;5015846;28;20021;-70
2023/05/29 08:48:28;;;;;;;44.92;31.40;;;;;;;;;;5015237;28;20022;-72
2023/05/29 08:50:56;;;;;;;50.13;31.55;;;;;;;;;;5015451;28;20026;-72
2023/05/29 08:53:23;;;;;;;46.28;33.80;;;;;;;;;;5015059;28;20033;-72
2023/05/29 08:55:52;;;;;;;33.95;26.98;;;;;;;;;;5015032;28;20028;-70
2023/05/29 08:58:21;;;;;;;48.10;35.67;;;;;;;;;;5015044;28;20104;-71
2023/05/29 09:00:49;;;;;;;33.38;25.27;;;;;;;;;;5015190;28;20022;-71
2023/05/29 09:03:17;;;;;;;34.25;25.55;;;;;;;;;;5014732;28;20041;-71
2023/05/29 09:05:47;;;;;;;32.67;24.83;;;;;;;;;;5015319;28;20030;-73
2023/05/29 09:08:14;;;;;;;118.53;88.38;;;;;;;;;;5034501;28;20029;-69
2023/05/29 09:10:43;;;;;;;39.47;28.17;;;;;;;;;;5034603;28;20035;-69
2023/05/29 09:13:11;;;;;;;38.28;30.25;;;;;;;;;;5034492;28;20057;-69
2023/05/29 09:15:40;;;;;;;37.17;28.45;;;;;;;;;;5034396;28;20033;-71
2023/05/29 09:18:08;;;;;;;38.75;26.98;;;;;;;;;;5034533;28;20017;-71
2023/05/29 09:20:35;;;;;;;41.72;29.83;;;;;;;;;;5034360;28;20018;-71
2023/05/29 09:23:04;;;;;;;38.42;31.38;;;;;;;;;;5034212;28;20021;-72
2023/05/29 09:25:32;;;;;;;34.80;28.70;;;;;;;;;;5034542;28;20022;-72
2023/05/29 09:28:02;;;;;;;37.25;27.85;;;;;;;;;;5004970;28;20026;-72
2023/05/29 09:30:32;;;;;;;33.05;25.65;;;;;;;;;;5001918;28;20034;-73
2023/05/29 09:33:01;;;;;;;33.85;26.38;;;;;;;;;;4995024;28;20442;-72
2023/05/29 09:35:33;;;;;;;30.73;25.05;;;;;;;;;;4994895;28;20416;-72
2023/05/29 09:38:01;;;;;;;60.90;48.40;;;;;;;;;;4994995;28;20022;-75
2023/05/29 09:40:31;;;;;;;74.65;53.78;;;;;;;;;;4994706;28;20026;-74
2023/05/29 09:43:04;;;;;;;125.15;92.18;;;;;;;;;;4994504;28;20019;-72
2023/05/29 09:45:31;;;;;;;72.82;59.55;;;;;;;;;;4994632;28;20025;-71
2023/05/29 09:47:59;;;;;;;84.47;67.82;;;;;;;;;;5002584;28;20435;-71
2023/05/29 09:50:28;;;;;;;64.53;51.60;;;;;;;;;;5019197;28;20068;-71
2023/05/29 09:52:57;;;;;;;96.80;80.03;;;;;;;;;;5023330;28;20021;-71
2023/05/29 09:55:26;;;;;;;58.35;46.33;;;;;;;;;;5023453;28;20022;-71
2023/05/29 09:57:54;;;;;;;46.65;37.00;;;;;;;;;;5021769;28;20026;-72
2023/05/29 10:00:23;;;;;;;33.40;27.50;;;;;;;;;;5022958;28;20018;-72
2023/05/29 10:02:50;;;;;;;34.92;28.38;;;;;;;;;;5023903;28;20025;-71
2023/05/29 10:05:17;;;;;;;34.80;26.73;;;;;;;;;;5020697;28;20448;-73
2023/05/29 10:07:47;;;;;;;44.20;28.42;;;;;;;;;;5021810;28;20466;-72
2023/05/29 10:10:14;;;;;;;47.72;36.47;;;;;;;;;;5018328;28;20529;-72
2023/05/29 10:12:45;;;;;;;46.47;35.65;;;;;;;;;;5022207;28;20018;-72
2023/05/29 10:15:14;;;;;;;40.53;32.00;;;;;;;;;;5023422;28;20459;-71
2023/05/29 10:17:45;;;;;;;59.97;47.38;;;;;;;;;;5030855;28;20378;-71
2023/05/29 10:20:15;;;;;;;78.65;58.58;;;;;;;;;;5033271;28;20053;-71
2023/05/29 10:22:45;;;;;;;122.20;92.45;;;;;;;;;;5033093;28;20037;-68
2023/05/29 10:25:11;;;;;;;101.63;69.47;;;;;;;;;;5032806;28;20470;-67
2023/05/29 10:27:41;;;;;;;81.55;59.83;;;;;;;;;;5033115;28;20120;-67
2023/05/29 10:30:08;;;;;;;244.95;201.48;;;;;;;;;;5033240;28;20075;-67
2023/05/29 10:32:41;;;;;;;93.80;73.28;;;;;;;;;;5032935;28;20025;-67
2023/05/29 10:35:12;;;;;;;80.95;60.33;;;;;;;;;;5033087;28;20021;-68
2023/05/29 10:37:40;;;;;;;78.07;53.78;;;;;;;;;;5033046;28;20467;-69
2023/05/29 10:40:17;;;;;;;101.63;63.90;;;;;;;;;;5033099;28;20100;-68
2023/05/29 10:42:43;;;;;;;77.15;50.17;;;;;;;;;;5032946;28;20041;-69
2023/05/29 10:45:12;;;;;;;100.22;64.28;;;;;;;;;;5032841;28;20025;-68
2023/05/29 10:47:39;;;;;;;68.63;47.00;;;;;;;;;;5033053;28;20473;-68
2023/05/29 10:50:06;;;;;;;91.45;48.08;;;;;;;;;;5033132;28;20097;-69
2023/05/29 10:52:33;;;;;;;94.22;68.53;;;;;;;;;;5032808;28;20029;-68
2023/05/29 10:55:03;;;;;;;130.95;86.30;;;;;;;;;;5033088;28;20021;-68
2023/05/29 10:57:35;;;;;;;105.10;69.70;;;;;;;;;;5032897;28;20529;-68
2023/05/29 11:00:06;;;;;;;93.95;63.13;;;;;;;;;;5032753;28;20045;-67
2023/05/29 11:02:33;;;;;;;112.22;79.07;;;;;;;;;;5032991;28;20483;-69
2023/05/29 11:05:21;;;;;;;64.15;46.20;;;;;;;;;;5032689;28;20041;-69
2023/05/29 11:07:58;;;;;;;58.00;40.25;;;;;;;;;;5033048;28;20436;-69
2023/05/29 11:10:45;;;;;;;85.07;49.15;;;;;;;;;;5032737;28;20037;-69
2023/05/29 11:13:12;;;;;;;90.35;58.97;;;;;;;;;;5032829;28;20391;-69
2023/05/29 11:15:39;;;;;;;90.28;53.95;;;;;;;;;;5032622;28;20031;-69
2023/05/29 11:18:07;;;;;;;86.80;54.90;;;;;;;;;;5035880;28;20107;-69
2023/05/29 11:20:34;;;;;;;96.82;54.50;;;;;;;;;;5036518;28;20021;-67
2023/05/29 11:23:01;;;;;;;120.85;72.03;;;;;;;;;;5036438;28;20475;-68
2023/05/29 11:25:28;;;;;;;185.65;121.93;;;;;;;;;;5036436;28;20406;-68
2023/05/29 11:27:55;;;;;;;109.07;77.70;;;;;;;;;;5036512;28;20087;-68
2023/05/29 11:30:22;;;;;;;95.53;64.20;;;;;;;;;;5036236;28;20039;-68
2023/05/29 11:32:52;;;;;;;78.15;52.42;;;;;;;;;;5036475;28;20097;-68
2023/05/29 11:35:20;;;;;;;63.67;38.97;;;;;;;;;;5036409;28;20021;-69
2023/05/29 11:37:47;;;;;;;61.17;35.60;;;;;;;;;;5036190;28;20297;-70
2023/05/29 11:40:14;;;;;;;53.85;34.00;;;;;;;;;;5036955;28;20048;-69
2023/05/29 11:42:45;;;;;;;48.92;31.33;;;;;;;;;;5017527;28;20379;-69
2023/05/29 11:45:19;;;;;;;40.15;27.90;;;;;;;;;;5035586;28;20040;-69
2023/05/29 11:47:57;;;;;;;36.88;25.52;;;;;;;;;;5035405;28;20029;-69
2023/05/29 11:50:26;;;;;;;37.60;25.92;;;;;;;;;;5035133;28;20035;-69
2023/05/29 11:52:53;;;;;;;43.20;27.00;;;;;;;;;;5035304;28;20022;-69
2023/05/29 11:55:21;;;;;;;39.90;28.27;;;;;;;;;;5035292;28;20027;-69
2023/05/29 11:58:05;;;;;;;48.17;30.60;;;;;;;;;;5035013;28;20032;-69
2023/05/29 12:00:33;;;;;;;47.42;29.90;;;;;;;;;;5034935;28;20029;-69
2023/05/29 12:03:04;;;;;;;47.53;29.73;;;;;;;;;;5034591;28;20298;-69
2023/05/29 12:05:31;;;;;;;38.47;25.73;;;;;;;;;;5034900;28;20116;-69
2023/05/29 12:08:00;;;;;;;45.90;29.50;;;;;;;;;;5035154;28;20021;-68
2023/05/29 12:10:27;;;;;;;42.92;27.08;;;;;;;;;;5034498;28;20026;-68
2023/05/29 12:12:55;;;;;;;60.97;46.22;;;;;;;;;;5022696;28;20022;-70
2023/05/29 12:15:22;;;;;;;239.02;154.20;;;;;;;;;;5015443;28;20031;-69
2023/05/29 12:17:50;;;;;;;55.13;37.33;;;;;;;;;;5012945;28;20467;-69
2023/05/29 12:20:17;;;;;;;37.00;25.30;;;;;;;;;;5015311;28;20038;-70
2023/05/29 12:22:45;;;;;;;38.28;24.83;;;;;;;;;;5014876;28;20084;-69
2023/05/29 12:25:13;;;;;;;42.90;28.05;;;;;;;;;;5014961;28;20144;-69
2023/05/29 12:27:42;;;;;;;39.22;27.52;;;;;;;;;;5015274;28;20022;-68
2023/05/29 12:30:10;;;;;;;38.80;28.00;;;;;;;;;;5014778;28;20026;-69
2023/05/29 12:32:37;;;;;;;41.17;28.50;;;;;;;;;;5015054;28;20018;-69
2023/05/29 12:35:13;;;;;;;72.82;43.60;;;;;;;;;;5015172;28;20091;-69
2023/05/29 12:37:50;;;;;;;84.78;51.13;;;;;;;;;;5014760;28;20029;-69
2023/05/29 12:40:21;;;;;;;103.47;57.60;;;;;;;;;;5015390;28;20054;-69
2023/05/29 12:42:49;;;;;;;80.90;50.75;;;;;;;;;;5012519;28;20030;-69
2023/05/29 12:45:18;;;;;;;72.70;42.20;;;;;;;;;;5015690;28;20058;-70
2023/05/29 12:48:05;;;;;;;62.40;36.50;;;;;;;;;;5017520;28;20036;-68
2023/05/29 12:50:33;;;;;;;55.33;33.03;;;;;;;;;;4994702;28;20044;-68
2023/05/29 12:53:05;;;;;;;49.30;32.08;;;;;;;;;;5021032;28;20142;-69
2023/05/29 12:55:33;;;;;;;;;;;;;;;;;;5026053;28;20026;-73
2023/05/29 12:58:00;;;;;;;41.60;27.33;;;;;;;;;;5022080;28;19952;-69
2023/05/29 13:00:27;;;;;;;36.70;25.33;;;;;;;;;;5024157;28;20098;-69
2023/05/29 13:02:54;;;;;;;49.00;29.73;;;;;;;;;;5025562;28;20428;-68
2023/05/29 13:05:22;;;;;;;49.97;30.08;;;;;;;;;;5021637;28;20100;-69
2023/05/29 13:07:50;;;;;;;40.42;26.75;;;;;;;;;;5023906;28;20013;-69
2023/05/29 13:10:17;;;;;;;33.50;24.98;;;;;;;;;;5019495;28;20052;-69
2023/05/29 13:12:44;;;;;;;48.00;29.95;;;;;;;;;;5022591;28;20104;-70
2023/05/29 13:15:12;;;;;;;43.60;28.45;;;;;;;;;;5020652;28;20420;-69
2023/05/29 13:17:41;;;;;;;39.63;26.83;;;;;;;;;;5021007;28;20021;-71
2023/05/29 13:20:09;;;;;;;46.20;29.05;;;;;;;;;;5024290;28;20444;-70
2023/05/29 13:22:36;;;;;;;46.63;29.60;;;;;;;;;;5025668;28;20036;-70
2023/05/29 13:25:06;;;;;;;42.38;28.02;;;;;;;;;;5022554;28;20021;-70
2023/05/29 13:27:33;;;;;;;34.42;26.10;;;;;;;;;;5021274;28;20028;-68
2023/05/29 13:30:00;;;;;;;35.38;25.27;;;;;;;;;;5024789;28;20025;-69
2023/05/29 13:32:27;;;;;;;43.83;28.58;;;;;;;;;;5023896;28;20028;-69
2023/05/29 13:34:53;;;;;;;43.53;29.90;;;;;;;;;;5024880;28;20028;-70
2023/05/29 13:37:20;;;;;;;69.45;46.33;;;;;;;;;;5023244;28;20038;-69
2023/05/29 13:39:47;;;;;;;63.30;45.75;;;;;;;;;;5022415;28;20022;-71
2023/05/29 13:42:14;;;;;;;47.97;35.35;;;;;;;;;;5024286;28;20053;-71
2023/05/29 13:44:40;;;;;;;50.03;33.50;;;;;;;;;;5025245;28;20018;-70
2023/05/29 13:47:08;;;;;;;40.47;31.25;;;;;;;;;;5025027;28;20018;-69
2023/05/29 13:49:35;;;;;;;78.22;61.53;;;;;;;;;;5027652;28;20153;-69
2023/05/29 13:52:02;;;;;;;39.90;26.83;;;;;;;;;;5034326;28;20375;-70
2023/05/29 13:54:31;;;;;;;36.30;26.63;;;;;;;;;;5033855;28;20105;-68
2023/05/29 13:56:58;;;;;;;35.08;24.48;;;;;;;;;;5034692;28;20348;-69
2023/05/29 13:59:25;;;;;;;40.65;26.63;;;;;;;;;;5034900;28;20096;-68
2023/05/29 14:01:52;;;;;;;40.55;24.80;;;;;;;;;;5035151;28;20026;-68
2023/05/29 14:04:19;;;;;;;34.72;25.15;;;;;;;;;;5035168;28;20172;-68
2023/05/29 14:06:45;;;;;;;36.65;24.02;;;;;;;;;;5034927;28;20045;-68
2023/05/29 14:09:12;;;;;;;37.25;24.42;;;;;;;;;;5034564;28;20056;-67
2023/05/29 14:11:40;;;;;;;32.13;24.13;;;;;;;;;;5034580;28;20042;-68
2023/05/29 14:14:07;;;;;;;30.80;23.92;;;;;;;;;;5034003;28;20040;-68
2023/05/29 14:16:34;;;;;;;34.28;24.33;;;;;;;;;;5034819;28;20442;-67